Time;durP1;ratioP1;P1;durP2;ratioP2;P2;SDS_P1;SDS_P2;PMS_P1;PMS_P2;Temp;Humidity;BMP_temperature;BMP_pressure;BME280_temperature;BME280_humidity;BME280_pressure;Samples;Min_cycle;Max_cycle;Signal;HPM_P1;HPM_P2
2024/03/12 00:00:28;;;;;;;70.80;38.80;;;;;;;;;;109378;1253;59811;-78
2024/03/12 00:03:15;;;;;;;72.30;35.40;;;;;;;;;;109469;1253;59852;-78
2024/03/12 00:05:41;;;;;;;70.10;35.60;;;;;;;;;;109424;1253;63642;-78
2024/03/12 00:08:08;;;;;;;67.60;36.50;;;;;;;;;;109480;1253;59920;-82
2024/03/12 00:10:34;;;;;;;72.20;36.00;;;;;;;;;;106591;1257;62066;-82
2024/03/12 00:13:01;;;;;;;71.70;33.80;;;;;;;;;;108762;1253;59889;-83
2024/03/12 00:15:28;;;;;;;70.50;35.10;;;;;;;;;;109386;1252;59858;-79
2024/03/12 00:17:55;;;;;;;70.30;36.40;;;;;;;;;;109392;1253;61529;-79
2024/03/12 00:20:29;;;;;;;77.00;36.70;;;;;;;;;;109481;1252;59622;-83
2024/03/12 00:22:56;;;;;;;67.20;33.80;;;;;;;;;;109468;1253;59729;-83
2024/03/12 00:25:22;;;;;;;77.70;34.10;;;;;;;;;;108784;1253;60723;-83
2024/03/12 00:27:50;;;;;;;69.90;36.60;;;;;;;;;;106943;1253;62120;-83
2024/03/12 00:30:18;;;;;;;74.40;39.30;;;;;;;;;;106927;1253;62640;-83
2024/03/12 00:32:47;;;;;;;75.70;33.90;;;;;;;;;;107004;1253;62030;-77
2024/03/12 00:35:14;;;;;;;67.20;35.90;;;;;;;;;;106294;1253;62080;-78
2024/03/12 00:37:47;;;;;;;72.70;37.10;;;;;;;;;;106556;1256;62027;-82
2024/03/12 00:40:13;;;;;;;70.30;33.70;;;;;;;;;;106549;1254;62018;-81
2024/03/12 00:42:40;;;;;;;62.50;33.10;;;;;;;;;;106946;1251;62675;-82
2024/03/12 00:45:11;;;;;;;65.70;33.10;;;;;;;;;;106785;1251;62147;-78
2024/03/12 00:47:38;;;;;;;67.00;33.90;;;;;;;;;;106912;1251;62071;-82
2024/03/12 00:50:04;;;;;;;75.50;35.00;;;;;;;;;;109561;1251;59794;-82
2024/03/12 00:52:31;;;;;;;71.50;35.60;;;;;;;;;;109548;1253;59752;-78
2024/03/12 00:54:57;;;;;;;65.90;31.80;;;;;;;;;;107303;1253;62745;-79
2024/03/12 00:57:27;;;;;;;76.20;35.60;;;;;;;;;;106602;1253;62069;-78
2024/03/12 00:59:53;;;;;;;;;;;;;;;;;;109501;1253;60394;-83
2024/03/12 01:02:19;;;;;;;72.40;34.80;;;;;;;;;;109463;1252;60158;-82
2024/03/12 01:04:45;;;;;;;65.60;34.40;;;;;;;;;;109490;1253;59788;-82
2024/03/12 01:07:12;;;;;;;72.60;34.40;;;;;;;;;;109497;1253;59718;-82
2024/03/12 01:09:41;;;;;;;70.00;36.30;;;;;;;;;;109470;1253;60117;-82
2024/03/12 01:12:10;;;;;;;62.70;32.30;;;;;;;;;;109462;1253;59871;-79
2024/03/12 01:14:37;;;;;;;70.70;34.40;;;;;;;;;;109478;1252;59932;-79
2024/03/12 01:17:06;;;;;;;72.70;33.80;;;;;;;;;;109466;1252;59659;-78
2024/03/12 01:19:33;;;;;;;68.30;36.30;;;;;;;;;;109479;1253;61605;-82
2024/03/12 01:22:00;;;;;;;68.90;34.60;;;;;;;;;;109507;1252;59761;-82
2024/03/12 01:24:26;;;;;;;66.70;32.60;;;;;;;;;;108172;1252;62279;-78
2024/03/12 01:26:53;;;;;;;65.10;31.50;;;;;;;;;;106581;1254;62157;-83
2024/03/12 01:29:19;;;;;;;64.00;31.60;;;;;;;;;;107022;1254;62000;-79
2024/03/12 01:31:47;;;;;;;68.00;31.50;;;;;;;;;;107014;1256;63277;-83
2024/03/12 01:34:13;;;;;;;64.90;31.40;;;;;;;;;;106970;1253;62057;-79
2024/03/12 01:36:42;;;;;;;67.80;32.60;;;;;;;;;;107648;1253;62082;-83
2024/03/12 01:39:09;;;;;;;62.50;33.60;;;;;;;;;;107397;1251;62067;-79
2024/03/12 01:41:41;;;;;;;63.20;31.70;;;;;;;;;;107293;1251;61954;-83
2024/03/12 01:44:08;;;;;;;63.00;30.40;;;;;;;;;;107046;1251;62034;-82
2024/03/12 01:46:35;;;;;;;58.10;29.90;;;;;;;;;;107095;1253;61958;-80
2024/03/12 01:49:04;;;;;;;63.30;29.80;;;;;;;;;;106957;1251;59931;-84
2024/03/12 01:51:31;;;;;;;65.30;31.60;;;;;;;;;;107008;1251;61692;-80
2024/03/12 01:53:57;;;;;;;61.00;30.20;;;;;;;;;;106985;1253;62019;-80
2024/03/12 01:56:24;;;;;;;60.30;31.00;;;;;;;;;;107025;1253;62742;-85
2024/03/12 01:58:51;;;;;;;63.40;30.40;;;;;;;;;;107091;1253;62069;-84
2024/03/12 02:01:20;;;;;;;64.40;31.50;;;;;;;;;;107079;1253;62297;-79
2024/03/12 02:03:47;;;;;;;64.10;30.70;;;;;;;;;;107078;1256;61878;-83
2024/03/12 02:06:14;;;;;;;65.30;29.90;;;;;;;;;;106490;1253;62085;-79
2024/03/12 02:08:40;;;;;;;61.70;30.60;;;;;;;;;;106520;1253;61899;-78
2024/03/12 02:11:07;;;;;;;56.20;28.70;;;;;;;;;;106468;1255;62037;-82
2024/03/12 02:13:33;;;;;;;61.60;28.60;;;;;;;;;;107048;1251;62031;-78
2024/03/12 02:15:59;;;;;;;59.70;28.70;;;;;;;;;;106490;1256;63137;-82
2024/03/12 02:18:26;;;;;;;65.60;30.50;;;;;;;;;;106501;1253;62118;-78
2024/03/12 02:20:52;;;;;;;57.50;27.40;;;;;;;;;;106511;1255;62156;-82
2024/03/12 02:23:19;;;;;;;64.40;31.20;;;;;;;;;;107983;1253;62152;-82
2024/03/12 02:25:45;;;;;;;59.70;32.30;;;;;;;;;;109388;1252;59983;-83
2024/03/12 02:28:12;;;;;;;58.60;26.60;;;;;;;;;;109498;1253;59772;-79
2024/03/12 02:30:38;;;;;;;64.00;30.40;;;;;;;;;;108625;1253;61568;-83
2024/03/12 02:33:04;;;;;;;59.70;29.70;;;;;;;;;;107100;1256;62065;-78
2024/03/12 02:35:34;;;;;;;57.90;30.50;;;;;;;;;;106286;1252;62049;-83
2024/03/12 02:38:00;;;;;;;55.70;26.70;;;;;;;;;;107091;1253;62070;-80
2024/03/12 02:40:27;;;;;;;52.00;25.80;;;;;;;;;;107039;1254;62075;-82
2024/03/12 02:42:53;;;;;;;54.40;26.60;;;;;;;;;;106959;1253;62159;-82
2024/03/12 02:45:20;;;;;;;56.40;26.90;;;;;;;;;;106590;1253;62091;-82
2024/03/12 02:47:47;;;;;;;58.20;27.30;;;;;;;;;;106446;1253;62162;-82
2024/03/12 02:50:13;;;;;;;53.00;25.80;;;;;;;;;;106491;1254;62145;-83
2024/03/12 02:52:41;;;;;;;61.40;27.70;;;;;;;;;;106490;1256;62390;-82
2024/03/12 02:55:08;;;;;;;52.20;24.90;;;;;;;;;;106950;1253;62052;-78
2024/03/12 02:57:34;;;;;;;53.60;25.70;;;;;;;;;;106447;1254;62054;-79
2024/03/12 03:00:01;;;;;;;54.00;28.20;;;;;;;;;;106502;1256;62124;-82
2024/03/12 03:02:29;;;;;;;55.40;27.60;;;;;;;;;;107021;1256;62175;-78
2024/03/12 03:04:55;;;;;;;59.60;26.90;;;;;;;;;;106432;1253;62025;-82
2024/03/12 03:07:24;;;;;;;55.60;25.90;;;;;;;;;;106400;1256;61948;-82
2024/03/12 03:09:50;;;;;;;54.10;26.40;;;;;;;;;;106370;1253;62064;-82
2024/03/12 03:12:17;;;;;;;53.80;24.60;;;;;;;;;;106917;1253;62021;-78
2024/03/12 03:14:44;;;;;;;61.60;27.50;;;;;;;;;;106500;1253;62031;-78
2024/03/12 03:17:10;;;;;;;60.00;26.80;;;;;;;;;;106264;1253;62006;-82
2024/03/12 03:19:37;;;;;;;56.90;25.50;;;;;;;;;;106477;1253;64080;-77
2024/03/12 03:22:04;;;;;;;60.70;26.50;;;;;;;;;;106507;1253;62137;-78
2024/03/12 03:24:35;;;;;;;57.30;26.70;;;;;;;;;;106315;1253;62069;-78
2024/03/12 03:27:01;;;;;;;56.30;26.80;;;;;;;;;;106463;1253;62120;-78
2024/03/12 03:29:31;;;;;;;56.90;25.70;;;;;;;;;;106451;1253;62153;-82
2024/03/12 03:31:58;;;;;;;59.20;28.10;;;;;;;;;;107131;1252;61988;-78
2024/03/12 03:34:28;;;;;;;61.60;26.00;;;;;;;;;;106552;1251;63672;-82
2024/03/12 03:36:57;;;;;;;60.90;25.40;;;;;;;;;;106413;1256;61922;-79
2024/03/12 03:39:24;;;;;;;55.60;26.60;;;;;;;;;;106471;1256;62184;-82
2024/03/12 03:41:51;;;;;;;57.90;27.00;;;;;;;;;;106552;1251;62196;-78
2024/03/12 03:44:18;;;;;;;51.30;26.90;;;;;;;;;;106566;1251;62035;-82
2024/03/12 03:46:45;;;;;;;61.20;27.10;;;;;;;;;;107049;1251;62797;-81
2024/03/12 03:49:11;;;;;;;64.30;28.90;;;;;;;;;;107156;1255;62135;-77
2024/03/12 03:51:38;;;;;;;61.10;24.30;;;;;;;;;;106545;1255;62165;-82
2024/03/12 03:54:04;;;;;;;58.20;25.30;;;;;;;;;;107073;1252;61897;-82
2024/03/12 03:56:30;;;;;;;61.90;27.20;;;;;;;;;;107063;1253;62203;-78
2024/03/12 03:58:58;;;;;;;54.70;27.60;;;;;;;;;;106498;1256;62489;-82
2024/03/12 04:01:24;;;;;;;57.10;26.30;;;;;;;;;;106991;1253;62025;-82
2024/03/12 04:03:53;;;;;;;56.90;26.70;;;;;;;;;;107081;1253;61920;-82
2024/03/12 04:06:23;;;;;;;57.90;25.90;;;;;;;;;;107046;1254;62057;-82
2024/03/12 04:08:50;;;;;;;64.80;27.40;;;;;;;;;;106776;1259;62045;-78
2024/03/12 04:11:18;;;;;;;54.00;25.60;;;;;;;;;;106274;1253;62718;-78
2024/03/12 04:13:45;;;;;;;;;;;;;;;;;;106529;1256;62062;-78
2024/03/12 04:16:11;;;;;;;53.10;22.60;;;;;;;;;;106452;1253;62600;-78
2024/03/12 04:18:38;;;;;;;59.80;26.50;;;;;;;;;;106487;1253;62153;-82
2024/03/12 04:21:05;;;;;;;74.20;30.10;;;;;;;;;;107089;1256;62121;-82
2024/03/12 04:23:32;;;;;;;58.80;27.70;;;;;;;;;;107057;1254;62055;-81
2024/03/12 04:25:58;;;;;;;61.20;26.00;;;;;;;;;;106984;1253;62137;-78
2024/03/12 04:28:25;;;;;;;65.20;30.00;;;;;;;;;;106449;1256;62039;-77
2024/03/12 04:30:52;;;;;;;60.20;27.40;;;;;;;;;;106470;1257;62821;-82
2024/03/12 04:33:19;;;;;;;67.30;29.10;;;;;;;;;;107225;1252;62031;-79
2024/03/12 04:35:45;;;;;;;62.70;27.20;;;;;;;;;;107167;1251;63173;-78
2024/03/12 04:38:14;;;;;;;67.40;27.20;;;;;;;;;;107293;1252;61938;-82
2024/03/12 04:40:41;;;;;;;59.60;26.40;;;;;;;;;;107087;1251;62530;-82
2024/03/12 04:43:08;;;;;;;71.40;33.10;;;;;;;;;;109552;1252;59669;-79
2024/03/12 04:45:35;;;;;;;61.50;28.80;;;;;;;;;;106688;1255;61958;-82
2024/03/12 04:48:01;;;;;;;68.40;30.10;;;;;;;;;;107106;1251;61960;-82
2024/03/12 04:50:27;;;;;;;64.20;28.40;;;;;;;;;;107092;1255;64219;-78
2024/03/12 04:52:55;;;;;;;51.90;25.50;;;;;;;;;;106319;1253;62147;-78
2024/03/12 04:55:21;;;;;;;55.70;23.70;;;;;;;;;;106376;1254;62030;-78
2024/03/12 04:57:47;;;;;;;65.20;29.30;;;;;;;;;;107126;1254;60353;-78
2024/03/12 05:00:14;;;;;;;60.50;29.10;;;;;;;;;;107129;1254;62174;-82
2024/03/12 05:02:40;;;;;;;65.80;30.40;;;;;;;;;;107097;1252;61914;-82
2024/03/12 05:05:20;;;;;;;65.20;25.50;;;;;;;;;;109348;1251;60160;-79
2024/03/12 05:07:47;;;;;;;64.00;25.10;;;;;;;;;;109541;1254;59635;-82
2024/03/12 05:10:16;;;;;;;61.90;26.30;;;;;;;;;;108468;1255;59743;-78
2024/03/12 05:12:43;;;;;;;54.60;27.10;;;;;;;;;;106511;1252;62757;-79
2024/03/12 05:15:10;;;;;;;52.50;24.30;;;;;;;;;;106577;1251;61916;-77
2024/03/12 05:17:36;;;;;;;53.00;24.70;;;;;;;;;;106391;1253;62165;-79
2024/03/12 05:20:06;;;;;;;55.20;25.90;;;;;;;;;;107054;1256;62087;-78
2024/03/12 05:22:33;;;;;;;55.50;24.10;;;;;;;;;;106841;1258;62092;-78
2024/03/12 05:25:01;;;;;;;59.40;27.10;;;;;;;;;;106447;1253;63621;-82
2024/03/12 05:27:35;;;;;;;55.70;25.90;;;;;;;;;;106448;1256;62088;-82
2024/03/12 05:30:10;;;;;;;56.10;26.60;;;;;;;;;;106460;1256;61658;-82
2024/03/12 05:32:43;;;;;;;60.30;26.70;;;;;;;;;;106939;1253;62056;-82
2024/03/12 05:35:22;;;;;;;64.50;27.80;;;;;;;;;;107043;1253;62007;-82
2024/03/12 05:38:01;;;;;;;61.50;26.30;;;;;;;;;;107061;1253;62817;-78
2024/03/12 05:40:43;;;;;;;62.60;27.10;;;;;;;;;;106973;1256;62633;-82
2024/03/12 05:48:40;;;;;;;50.30;22.80;;;;;;;;;;106478;1253;62092;-82
2024/03/12 05:51:07;;;;;;;63.30;27.00;;;;;;;;;;106457;1253;62085;-78
2024/03/12 05:53:34;;;;;;;60.50;30.20;;;;;;;;;;106498;1256;62039;-78
2024/03/12 05:56:03;;;;;;;73.70;28.40;;;;;;;;;;106434;1255;62192;-78
2024/03/12 05:58:29;;;;;;;64.50;29.30;;;;;;;;;;107207;1254;62038;-82
2024/03/12 06:00:56;;;;;;;59.30;29.20;;;;;;;;;;106939;1252;62297;-78
2024/03/12 06:03:22;;;;;;;71.00;30.30;;;;;;;;;;106408;1253;62056;-82
2024/03/12 06:05:49;;;;;;;59.30;26.90;;;;;;;;;;106482;1253;62374;-82
2024/03/12 06:08:15;;;;;;;60.80;26.30;;;;;;;;;;106413;1259;62043;-82
2024/03/12 06:10:42;;;;;;;67.50;28.50;;;;;;;;;;106227;1258;62035;-82
2024/03/12 06:13:08;;;;;;;65.10;28.00;;;;;;;;;;107057;1252;61988;-82
2024/03/12 06:15:35;;;;;;;60.60;25.60;;;;;;;;;;107045;1253;61050;-82
2024/03/12 06:18:02;;;;;;;57.80;26.70;;;;;;;;;;107130;1256;61910;-78
2024/03/12 06:20:28;;;;;;;54.60;25.70;;;;;;;;;;106893;1258;61916;-82
2024/03/12 06:22:55;;;;;;;57.60;26.30;;;;;;;;;;107074;1256;61905;-78
2024/03/12 06:25:22;;;;;;;57.00;25.70;;;;;;;;;;107037;1256;62081;-78
2024/03/12 06:27:49;;;;;;;56.00;26.30;;;;;;;;;;106465;1256;62120;-82
2024/03/12 06:30:15;;;;;;;56.00;26.90;;;;;;;;;;106455;1256;62079;-82
2024/03/12 06:32:41;;;;;;;58.70;24.90;;;;;;;;;;106354;1254;62072;-82
2024/03/12 06:35:08;;;;;;;56.10;27.50;;;;;;;;;;107101;1254;62059;-78
2024/03/12 06:37:35;;;;;;;56.30;26.00;;;;;;;;;;106316;1259;62184;-77
2024/03/12 06:40:03;;;;;;;60.30;27.00;;;;;;;;;;107084;1254;62741;-82
2024/03/12 06:42:30;;;;;;;59.10;25.80;;;;;;;;;;109480;1253;59693;-83
2024/03/12 06:44:56;;;;;;;62.50;28.80;;;;;;;;;;109412;1252;59972;-83
2024/03/12 06:47:26;;;;;;;58.80;25.90;;;;;;;;;;108610;1253;62230;-78
2024/03/12 06:49:54;;;;;;;56.20;25.30;;;;;;;;;;106488;1256;62008;-83
2024/03/12 06:52:22;;;;;;;53.00;25.00;;;;;;;;;;107106;1254;62737;-78
2024/03/12 06:54:50;;;;;;;56.30;25.90;;;;;;;;;;106544;1253;62069;-78
2024/03/12 06:57:19;;;;;;;53.70;25.20;;;;;;;;;;106338;1253;62074;-82
2024/03/12 06:59:49;;;;;;;56.20;24.70;;;;;;;;;;106573;1254;62108;-83
2024/03/12 07:02:18;;;;;;;42.00;22.70;;;;;;;;;;106893;1254;60468;-82
2024/03/12 07:04:47;;;;;;;50.60;25.10;;;;;;;;;;108009;1253;63465;-82
2024/03/12 07:07:18;;;;;;;49.40;26.70;;;;;;;;;;106492;1253;63200;-83
2024/03/12 07:09:45;;;;;;;49.60;25.10;;;;;;;;;;106516;1256;62092;-82
2024/03/12 07:12:14;;;;;;;45.50;22.10;;;;;;;;;;107239;1254;62050;-83
2024/03/12 07:14:41;;;;;;;48.70;22.40;;;;;;;;;;107262;1253;62029;-83
2024/03/12 07:17:09;;;;;;;51.80;24.80;;;;;;;;;;107294;1259;62721;-83
2024/03/12 07:19:39;;;;;;;60.30;27.70;;;;;;;;;;107349;1253;59913;-83
2024/03/12 07:22:08;;;;;;;56.80;27.50;;;;;;;;;;107362;1256;61919;-83
2024/03/12 07:24:35;;;;;;;53.10;25.90;;;;;;;;;;107312;1254;60160;-79
2024/03/12 07:27:03;;;;;;;52.30;25.90;;;;;;;;;;107313;1254;62517;-79
2024/03/12 07:29:32;;;;;;;52.80;24.20;;;;;;;;;;109336;1253;61269;-82
2024/03/12 07:32:03;;;;;;;48.10;24.60;;;;;;;;;;109432;1254;59804;-84
2024/03/12 07:34:32;;;;;;;45.30;23.80;;;;;;;;;;109418;1253;60128;-79
2024/03/12 07:36:59;;;;;;;45.90;23.30;;;;;;;;;;109243;1254;59718;-84
2024/03/12 07:39:26;;;;;;;44.20;23.60;;;;;;;;;;109488;1253;59948;-83
2024/03/12 07:41:55;;;;;;;46.70;21.70;;;;;;;;;;109377;1256;62709;-79
2024/03/12 07:44:25;;;;;;;44.30;22.70;;;;;;;;;;109361;1251;59992;-84
2024/03/12 07:46:55;;;;;;;44.50;20.70;;;;;;;;;;109424;1253;59939;-79
2024/03/12 07:49:22;;;;;;;44.00;21.80;;;;;;;;;;109421;1253;59886;-83
2024/03/12 07:51:49;;;;;;;48.50;22.80;;;;;;;;;;109392;1253;59932;-84
2024/03/12 07:54:18;;;;;;;52.40;26.80;;;;;;;;;;109424;1253;62548;-84
2024/03/12 07:56:48;;;;;;;53.20;26.60;;;;;;;;;;109290;1251;59966;-80
2024/03/12 07:59:21;;;;;;;46.00;24.40;;;;;;;;;;109412;1252;60233;-80
2024/03/12 08:01:53;;;;;;;44.50;25.00;;;;;;;;;;109413;1253;59717;-84
2024/03/12 08:04:20;;;;;;;41.30;21.90;;;;;;;;;;109394;1252;59660;-83
2024/03/12 08:06:46;;;;;;;41.00;21.30;;;;;;;;;;109455;1253;62689;-80
2024/03/12 08:09:13;;;;;;;44.10;23.40;;;;;;;;;;109355;1253;59926;-84
2024/03/12 08:11:39;;;;;;;43.20;22.20;;;;;;;;;;109324;1253;60124;-84
2024/03/12 08:14:06;;;;;;;37.90;22.10;;;;;;;;;;109345;1251;59909;-84
2024/03/12 08:16:33;;;;;;;38.20;21.40;;;;;;;;;;109351;1256;59911;-79
2024/03/12 08:19:01;;;;;;;38.60;22.60;;;;;;;;;;109350;1253;62692;-84
2024/03/12 08:21:27;;;;;;;38.70;21.00;;;;;;;;;;109356;1254;60021;-84
2024/03/12 08:23:56;;;;;;;32.80;21.20;;;;;;;;;;109401;1253;59646;-84
2024/03/12 08:26:22;;;;;;;38.20;21.90;;;;;;;;;;109379;1254;60056;-79
2024/03/12 08:28:51;;;;;;;36.90;21.70;;;;;;;;;;109368;1253;59610;-79
2024/03/12 08:31:18;;;;;;;39.20;23.30;;;;;;;;;;109151;1253;62809;-84
2024/03/12 08:33:44;;;;;;;31.60;20.20;;;;;;;;;;109426;1253;59935;-84
2024/03/12 08:36:10;;;;;;;38.20;21.30;;;;;;;;;;109268;1253;59851;-84
2024/03/12 08:38:37;;;;;;;39.80;20.60;;;;;;;;;;109418;1252;59922;-79
2024/03/12 08:41:04;;;;;;;39.60;23.20;;;;;;;;;;109432;1253;60000;-83
2024/03/12 08:43:30;;;;;;;37.00;21.60;;;;;;;;;;109408;1251;62684;-79
2024/03/12 08:45:58;;;;;;;37.20;22.20;;;;;;;;;;109422;1252;59904;-83
2024/03/12 08:48:25;;;;;;;32.60;19.30;;;;;;;;;;109413;1256;59703;-82
2024/03/12 08:50:51;;;;;;;61.40;33.60;;;;;;;;;;108620;1254;60852;-83
2024/03/12 08:53:18;;;;;;;33.60;20.70;;;;;;;;;;107146;1254;61923;-83
2024/03/12 08:55:45;;;;;;;31.80;18.30;;;;;;;;;;107375;1252;62027;-79
2024/03/12 08:58:11;;;;;;;28.80;18.50;;;;;;;;;;106493;1254;62098;-79
2024/03/12 09:00:39;;;;;;;33.80;19.70;;;;;;;;;;106414;1253;62244;-78
2024/03/12 09:03:06;;;;;;;30.10;18.10;;;;;;;;;;106590;1254;62099;-84
2024/03/12 09:05:34;;;;;;;31.60;17.70;;;;;;;;;;107386;1258;60294;-83
2024/03/12 09:08:03;;;;;;;35.40;18.30;;;;;;;;;;107431;1253;62678;-80
2024/03/12 09:10:30;;;;;;;34.00;19.20;;;;;;;;;;107133;1260;62041;-83
2024/03/12 09:12:57;;;;;;;30.10;18.00;;;;;;;;;;107295;1254;60232;-78
2024/03/12 09:15:24;;;;;;;31.30;18.70;;;;;;;;;;107420;1256;61948;-78
2024/03/12 09:17:50;;;;;;;38.40;23.30;;;;;;;;;;106782;1253;62350;-83
2024/03/12 09:20:17;;;;;;;31.70;19.10;;;;;;;;;;107375;1254;62040;-79
2024/03/12 09:22:46;;;;;;;34.20;19.20;;;;;;;;;;108240;1253;62108;-84
2024/03/12 09:25:12;;;;;;;36.10;20.10;;;;;;;;;;108337;1254;60063;-79
2024/03/12 09:27:39;;;;;;;32.60;19.90;;;;;;;;;;107871;1253;62124;-79
2024/03/12 09:30:07;;;;;;;35.80;21.00;;;;;;;;;;107006;1254;62134;-83
2024/03/12 09:32:36;;;;;;;27.40;17.70;;;;;;;;;;107405;1252;62683;-83
2024/03/12 09:35:03;;;;;;;31.60;19.60;;;;;;;;;;107526;1254;62130;-79
2024/03/12 09:37:29;;;;;;;28.40;16.70;;;;;;;;;;107537;1254;61979;-79
2024/03/12 09:39:56;;;;;;;31.60;19.60;;;;;;;;;;107331;1256;62167;-78
2024/03/12 09:42:24;;;;;;;38.80;22.60;;;;;;;;;;106596;1254;62031;-79
2024/03/12 09:44:51;;;;;;;34.00;20.50;;;;;;;;;;106547;1258;62985;-83
2024/03/12 09:47:18;;;;;;;36.40;22.70;;;;;;;;;;107340;1252;62136;-83
2024/03/12 09:49:45;;;;;;;48.20;21.80;;;;;;;;;;107272;1253;61927;-83
2024/03/12 09:52:11;;;;;;;30.00;18.50;;;;;;;;;;107210;1254;61905;-78
2024/03/12 09:54:38;;;;;;;35.10;20.70;;;;;;;;;;107357;1253;62045;-79
2024/03/12 09:57:11;;;;;;;35.80;18.20;;;;;;;;;;107357;1253;62724;-83
2024/03/12 09:59:40;;;;;;;32.60;18.10;;;;;;;;;;107323;1257;62059;-79
2024/03/12 10:02:06;;;;;;;;;;;;;;;;;;107245;1254;62686;-83
2024/03/12 10:04:33;;;;;;;33.00;20.50;;;;;;;;;;107343;1256;62008;-83
2024/03/12 10:07:00;;;;;;;34.30;18.70;;;;;;;;;;107496;1256;61954;-79
2024/03/12 10:09:29;;;;;;;37.50;21.60;;;;;;;;;;107465;1252;62663;-83
2024/03/12 10:12:01;;;;;;;31.90;18.80;;;;;;;;;;107328;1256;62040;-79
2024/03/12 10:14:28;;;;;;;34.00;19.60;;;;;;;;;;107219;1254;62066;-79
2024/03/12 10:17:13;;;;;;;39.40;22.00;;;;;;;;;;107052;1254;62076;-84
2024/03/12 10:19:43;;;;;;;39.10;20.40;;;;;;;;;;107061;1254;59944;-84
2024/03/12 10:22:10;;;;;;;37.80;20.60;;;;;;;;;;106962;1258;62756;-79
2024/03/12 10:24:36;;;;;;;44.30;23.70;;;;;;;;;;107057;1252;62063;-83
2024/03/12 10:27:05;;;;;;;37.10;19.90;;;;;;;;;;107212;1256;62150;-84
2024/03/12 10:29:32;;;;;;;38.30;21.00;;;;;;;;;;107212;1256;60368;-84
2024/03/12 10:31:59;;;;;;;37.70;22.90;;;;;;;;;;107104;1256;62044;-80
2024/03/12 10:34:27;;;;;;;41.20;23.60;;;;;;;;;;107034;1257;63012;-85
2024/03/12 10:36:54;;;;;;;42.80;22.80;;;;;;;;;;107134;1256;62110;-80
2024/03/12 10:39:24;;;;;;;46.90;23.90;;;;;;;;;;106867;1254;62101;-80
2024/03/12 10:41:55;;;;;;;40.30;22.40;;;;;;;;;;106786;1253;62047;-85
2024/03/12 10:44:21;;;;;;;40.30;24.20;;;;;;;;;;106825;1257;62105;-84
2024/03/12 10:46:47;;;;;;;40.00;22.20;;;;;;;;;;107165;1252;62063;-80
2024/03/12 10:49:15;;;;;;;39.20;22.50;;;;;;;;;;107793;1254;62114;-80
2024/03/12 10:51:45;;;;;;;38.80;22.00;;;;;;;;;;107191;1251;61898;-84
2024/03/12 10:54:13;;;;;;;41.00;22.70;;;;;;;;;;107248;1256;63092;-84
2024/03/12 10:56:41;;;;;;;37.10;23.90;;;;;;;;;;107328;1252;62037;-85
2024/03/12 10:59:08;;;;;;;37.80;20.70;;;;;;;;;;107323;1251;62722;-84
2024/03/12 11:01:34;;;;;;;38.20;21.00;;;;;;;;;;107070;1251;62158;-79
2024/03/12 11:04:00;;;;;;;40.30;22.50;;;;;;;;;;107171;1257;62204;-84
2024/03/12 11:06:27;;;;;;;39.30;21.70;;;;;;;;;;107302;1254;62027;-84
2024/03/12 11:08:54;;;;;;;37.60;22.80;;;;;;;;;;107178;1257;62069;-79
2024/03/12 11:11:21;;;;;;;37.30;21.30;;;;;;;;;;107051;1256;62705;-80
2024/03/12 11:13:49;;;;;;;36.40;21.40;;;;;;;;;;107100;1257;62140;-84
2024/03/12 11:16:19;;;;;;;37.00;21.40;;;;;;;;;;107239;1253;62008;-84
2024/03/12 11:18:45;;;;;;;40.30;22.50;;;;;;;;;;107999;1253;62052;-80
2024/03/12 11:21:13;;;;;;;46.10;24.50;;;;;;;;;;107186;1256;61858;-79
2024/03/12 11:23:39;;;;;;;43.30;24.30;;;;;;;;;;106478;1258;62682;-84
2024/03/12 11:26:06;;;;;;;43.30;24.80;;;;;;;;;;107153;1259;62753;-79
2024/03/12 11:28:32;;;;;;;40.90;23.70;;;;;;;;;;106541;1254;61958;-84
2024/03/12 11:31:04;;;;;;;36.70;21.60;;;;;;;;;;107021;1254;62159;-79
2024/03/12 11:33:45;;;;;;;41.80;23.00;;;;;;;;;;107064;1254;62140;-85
2024/03/12 11:36:13;;;;;;;43.90;25.50;;;;;;;;;;107400;1254;63746;-84
2024/03/12 11:38:40;;;;;;;39.80;22.40;;;;;;;;;;108321;1256;62158;-84
2024/03/12 11:41:07;;;;;;;42.50;24.20;;;;;;;;;;107401;1254;62082;-84
2024/03/12 11:43:37;;;;;;;39.80;21.40;;;;;;;;;;107256;1255;62049;-83
2024/03/12 11:46:07;;;;;;;46.50;24.70;;;;;;;;;;107497;1253;60279;-79
2024/03/12 11:48:38;;;;;;;37.80;21.50;;;;;;;;;;107036;1260;62382;-84
2024/03/12 11:51:07;;;;;;;42.00;25.60;;;;;;;;;;107154;1257;62046;-84
2024/03/12 11:53:35;;;;;;;43.50;22.80;;;;;;;;;;106809;1261;61955;-79
2024/03/12 11:56:10;;;;;;;43.20;25.10;;;;;;;;;;107123;1257;61829;-83
2024/03/12 11:58:40;;;;;;;49.30;27.20;;;;;;;;;;107036;1251;62172;-84
2024/03/12 12:01:09;;;;;;;58.40;32.10;;;;;;;;;;106774;1254;62723;-84
2024/03/12 12:03:38;;;;;;;56.20;30.20;;;;;;;;;;106985;1254;62050;-84
2024/03/12 12:06:06;;;;;;;51.20;29.70;;;;;;;;;;107095;1254;60259;-84
2024/03/12 12:08:33;;;;;;;54.70;28.60;;;;;;;;;;107188;1256;62010;-79
2024/03/12 12:11:03;;;;;;;54.50;29.50;;;;;;;;;;107124;1254;62009;-84
2024/03/12 12:13:30;;;;;;;55.90;30.30;;;;;;;;;;107096;1254;62735;-79
2024/03/12 12:16:02;;;;;;;57.70;30.30;;;;;;;;;;107118;1253;62044;-79
2024/03/12 12:18:29;;;;;;;48.00;26.70;;;;;;;;;;106569;1257;63078;-84
2024/03/12 12:20:57;;;;;;;47.60;25.40;;;;;;;;;;107051;1257;62072;-79
2024/03/12 12:23:25;;;;;;;48.20;28.80;;;;;;;;;;107042;1256;61944;-79
2024/03/12 12:25:53;;;;;;;44.40;24.30;;;;;;;;;;107071;1254;62716;-84
2024/03/12 12:28:22;;;;;;;37.80;20.60;;;;;;;;;;107020;1254;62102;-84
2024/03/12 12:30:49;;;;;;;41.90;24.70;;;;;;;;;;107134;1254;62157;-84
2024/03/12 12:33:16;;;;;;;42.90;25.40;;;;;;;;;;106962;1254;62041;-79
2024/03/12 12:35:42;;;;;;;39.10;23.60;;;;;;;;;;107065;1256;62149;-84
2024/03/12 12:38:09;;;;;;;36.90;21.50;;;;;;;;;;107208;1254;62048;-84
2024/03/12 12:40:37;;;;;;;41.80;23.50;;;;;;;;;;107592;1254;62401;-80
2024/03/12 12:43:06;;;;;;;42.20;24.30;;;;;;;;;;107269;1254;60747;-79
2024/03/12 12:45:33;;;;;;;37.90;23.80;;;;;;;;;;106882;1260;62046;-84
2024/03/12 12:48:04;;;;;;;38.50;23.20;;;;;;;;;;107630;1254;60069;-84
2024/03/12 12:50:35;;;;;;;41.00;24.40;;;;;;;;;;107477;1254;62060;-84
2024/03/12 12:53:02;;;;;;;42.70;22.80;;;;;;;;;;107522;1254;62092;-79
2024/03/12 12:55:29;;;;;;;37.60;23.10;;;;;;;;;;107286;1256;62143;-84
2024/03/12 12:58:00;;;;;;;47.80;27.50;;;;;;;;;;107393;1254;62043;-79
2024/03/12 13:00:27;;;;;;;42.20;25.40;;;;;;;;;;107405;1254;62066;-79
2024/03/12 13:02:58;;;;;;;39.00;21.50;;;;;;;;;;106698;1257;63440;-79
2024/03/12 13:05:25;;;;;;;37.90;22.10;;;;;;;;;;107340;1257;62060;-79
2024/03/12 13:07:51;;;;;;;47.40;26.50;;;;;;;;;;106669;1255;62045;-84
2024/03/12 13:10:20;;;;;;;36.30;23.10;;;;;;;;;;109388;1254;60014;-84
2024/03/12 13:12:47;;;;;;;32.20;19.50;;;;;;;;;;109424;1251;59669;-84
2024/03/12 13:15:23;;;;;;;42.60;24.50;;;;;;;;;;109400;1251;59842;-84
2024/03/12 13:17:51;;;;;;;43.30;25.30;;;;;;;;;;109410;1254;60195;-79
2024/03/12 13:20:19;;;;;;;37.20;21.30;;;;;;;;;;109384;1253;59925;-84
2024/03/12 13:22:48;;;;;;;38.20;23.40;;;;;;;;;;109413;1251;59707;-80
2024/03/12 13:25:20;;;;;;;38.20;22.20;;;;;;;;;;109394;1251;59926;-84
2024/03/12 13:27:46;;;;;;;36.70;20.40;;;;;;;;;;109315;1254;63483;-79
2024/03/12 13:30:14;;;;;;;32.90;20.70;;;;;;;;;;109309;1254;59754;-84
2024/03/12 13:32:43;;;;;;;36.00;19.60;;;;;;;;;;109430;1254;60086;-84
2024/03/12 13:35:10;;;;;;;33.00;20.50;;;;;;;;;;109385;1251;59691;-84
2024/03/12 13:37:36;;;;;;;34.30;19.70;;;;;;;;;;109421;1254;59775;-79
2024/03/12 13:40:05;;;;;;;35.40;21.10;;;;;;;;;;109415;1254;60089;-85
2024/03/12 13:42:32;;;;;;;33.10;19.70;;;;;;;;;;109457;1252;59805;-80
2024/03/12 13:44:58;;;;;;;30.70;18.10;;;;;;;;;;109396;1251;59633;-84
2024/03/12 13:47:25;;;;;;;29.90;18.70;;;;;;;;;;109256;1254;59955;-79
2024/03/12 13:49:52;;;;;;;31.20;19.00;;;;;;;;;;109236;1253;60027;-79
2024/03/12 13:52:21;;;;;;;28.60;17.40;;;;;;;;;;109515;1251;62714;-79
2024/03/12 13:54:47;;;;;;;33.10;18.40;;;;;;;;;;109406;1253;59992;-84
2024/03/12 13:57:13;;;;;;;30.70;18.20;;;;;;;;;;108148;1254;62083;-84
2024/03/12 13:59:40;;;;;;;31.60;20.60;;;;;;;;;;107085;1257;61928;-83
2024/03/12 14:02:07;;;;;;;32.40;20.10;;;;;;;;;;106965;1254;61979;-84
2024/03/12 14:04:35;;;;;;;33.00;21.70;;;;;;;;;;106804;1254;62766;-80
2024/03/12 14:07:05;;;;;;;34.90;20.60;;;;;;;;;;107008;1254;62053;-84
2024/03/12 14:09:31;;;;;;;34.10;20.10;;;;;;;;;;107102;1253;62415;-83
2024/03/12 14:11:59;;;;;;;24.90;15.90;;;;;;;;;;107181;1254;62026;-83
2024/03/12 14:14:25;;;;;;;30.00;17.70;;;;;;;;;;106994;1254;63132;-83